createdAt,value
2018-06-05T00:02:16.928Z,26.43
2018-06-05T00:05:21.301Z,25.03
2018-06-05T00:08:25.689Z,22.40
2018-06-05T00:11:30.116Z,25.90
2018-06-05T00:14:34.515Z,27.37
2018-06-05T00:17:38.896Z,18.73
2018-06-05T00:20:43.292Z,25.80
2018-06-05T00:23:47.685Z,28.60
2018-06-05T00:26:51.827Z,25.17
2018-06-05T00:29:57.061Z,24.27
2018-06-05T00:33:01.416Z,24.37
2018-06-05T00:36:05.797Z,25.43
2018-06-05T00:39:10.313Z,22.57
2018-06-05T00:42:14.727Z,22.30
2018-06-05T00:45:19.102Z,19.07
2018-06-05T00:48:23.497Z,28.67
2018-06-05T00:51:44.905Z,24.47
2018-06-05T00:54:49.290Z,19.13
2018-06-05T00:57:53.693Z,22.67
2018-06-05T01:00:58.072Z,29.53
2018-06-05T01:04:02.457Z,16.47
2018-06-05T01:07:06.853Z,19.00
2018-06-05T01:10:11.235Z,22.67
2018-06-05T01:13:15.631Z,26.17
2018-06-05T01:16:20.037Z,25.83
2018-06-05T01:19:24.400Z,22.53
2018-06-05T01:22:28.949Z,26.57
2018-06-05T01:25:33.329Z,29.33
2018-06-05T01:28:37.705Z,27.10
2018-06-05T01:31:42.121Z,23.23
2018-06-05T01:34:46.527Z,20.50
2018-06-05T01:37:50.945Z,31.63
2018-06-05T01:40:55.312Z,24.07
2018-06-05T01:43:59.718Z,28.40
2018-06-05T01:47:04.098Z,22.03
2018-06-05T01:50:08.508Z,23.27
2018-06-05T01:53:12.901Z,20.83
2018-06-05T01:56:17.292Z,23.90
2018-06-05T01:59:21.692Z,21.53
2018-06-05T02:02:26.078Z,20.77
2018-06-05T02:05:30.481Z,20.67
2018-06-05T02:08:34.867Z,21.07
2018-06-05T02:11:39.277Z,29.80
2018-06-05T02:14:43.653Z,25.50
2018-06-05T02:17:48.042Z,23.20
2018-06-05T02:20:52.402Z,21.87
2018-06-05T02:23:56.799Z,22.17
2018-06-05T02:27:01.149Z,19.17
2018-06-05T02:30:05.590Z,24.63
2018-06-05T02:33:10.028Z,20.17
2018-06-05T02:36:14.426Z,20.53
2018-06-05T02:39:18.807Z,18.67
2018-06-05T02:42:23.192Z,18.97
2018-06-05T02:45:27.578Z,20.07
2018-06-05T02:48:31.953Z,19.30
2018-06-05T02:51:36.297Z,21.90
2018-06-05T02:54:40.685Z,24.23
2018-06-05T02:57:45.094Z,28.70
2018-06-05T03:00:49.481Z,27.93
2018-06-05T03:03:53.909Z,21.33
2018-06-05T03:06:58.319Z,23.30
2018-06-05T03:10:02.704Z,19.20
2018-06-05T03:13:07.121Z,25.10
2018-06-05T03:16:11.485Z,26.67
2018-06-05T03:19:15.913Z,26.37
2018-06-05T03:22:20.300Z,25.37
2018-06-05T03:25:24.656Z,18.40
2018-06-05T03:28:29.021Z,22.33
2018-06-05T03:31:33.397Z,21.80
2018-06-05T03:34:37.785Z,21.27
2018-06-05T03:37:42.234Z,21.30
2018-06-05T03:40:46.611Z,22.53
2018-06-05T03:43:51.030Z,23.40
2018-06-05T03:46:55.414Z,19.83
2018-06-05T03:49:59.808Z,27.20
2018-06-05T03:53:04.193Z,22.33
2018-06-05T03:56:08.577Z,24.83
2018-06-05T03:59:12.988Z,27.67
2018-06-05T04:02:17.370Z,23.40
2018-06-05T04:05:21.798Z,24.90
2018-06-05T04:08:26.185Z,30.77
2018-06-05T04:11:30.565Z,25.83
2018-06-05T04:14:34.942Z,25.17
2018-06-05T04:17:39.323Z,27.10
2018-06-05T04:20:43.700Z,24.60
2018-06-05T04:23:48.101Z,18.30
2018-06-05T04:26:52.469Z,18.53
2018-06-05T04:29:56.845Z,29.10
2018-06-05T04:33:01.274Z,25.43
2018-06-05T04:36:05.669Z,25.07
2018-06-05T04:39:10.061Z,26.00
2018-06-05T04:42:14.462Z,21.90
2018-06-05T04:45:18.848Z,22.43
2018-06-05T04:48:23.238Z,23.70
2018-06-05T04:51:27.598Z,29.30
2018-06-05T04:54:31.977Z,18.07
2018-06-05T04:57:36.350Z,28.23
2018-06-05T05:00:40.727Z,22.27
2018-06-05T05:03:45.150Z,23.60
2018-06-05T05:06:49.521Z,26.90
2018-06-05T05:09:53.916Z,28.83
2018-06-05T05:12:58.298Z,14.90
2018-06-05T05:16:02.700Z,24.40
2018-06-05T05:19:07.057Z,24.00
2018-06-05T05:22:11.601Z,25.17
2018-06-05T05:25:16.003Z,23.47
2018-06-05T05:28:20.404Z,28.87
2018-06-05T05:31:24.838Z,28.20
2018-06-05T05:34:29.228Z,23.73
2018-06-05T05:37:33.671Z,26.70
2018-06-05T05:40:38.111Z,21.27
2018-06-05T05:43:42.513Z,26.77
2018-06-05T05:46:46.921Z,22.93
2018-06-05T05:49:51.316Z,22.47
2018-06-05T05:52:55.713Z,29.23
2018-06-05T05:56:00.134Z,23.17
2018-06-05T05:59:04.750Z,30.80
2018-06-05T06:02:09.180Z,25.07
2018-06-05T06:05:13.604Z,21.50
2018-06-05T06:08:18.034Z,21.13
2018-06-05T06:11:22.466Z,23.43
2018-06-05T06:14:26.896Z,33.13
2018-06-05T06:17:31.286Z,25.00
2018-06-05T06:20:35.753Z,29.07
2018-06-05T06:23:40.176Z,28.33
2018-06-05T06:26:44.579Z,20.83
2018-06-05T06:29:48.951Z,20.90
2018-06-05T06:32:53.353Z,20.20
2018-06-05T06:35:57.777Z,21.80
2018-06-05T06:39:02.206Z,21.17
2018-06-05T06:42:06.646Z,19.97
2018-06-05T06:45:11.043Z,20.47
2018-06-05T06:48:15.454Z,24.87
2018-06-05T06:51:19.809Z,21.00
2018-06-05T06:54:24.236Z,28.03
2018-06-05T06:57:28.627Z,20.73
2018-06-05T07:00:33.005Z,23.27
2018-06-05T07:03:37.410Z,22.63
2018-06-05T07:06:41.781Z,22.93
2018-06-05T07:09:46.183Z,23.47
2018-06-05T07:12:50.579Z,20.77
2018-06-05T07:15:54.974Z,23.77
2018-06-05T07:18:59.330Z,24.87
2018-06-05T07:22:03.715Z,22.30
2018-06-05T07:25:08.436Z,20.77
2018-06-05T07:28:12.849Z,24.87
2018-06-05T07:31:17.252Z,21.37
2018-06-05T07:34:21.675Z,29.17
2018-06-05T07:37:26.502Z,17.57
2018-06-05T07:40:30.945Z,23.63
2018-06-05T07:43:35.340Z,20.23
2018-06-05T07:46:39.777Z,20.43
2018-06-05T07:49:44.189Z,19.93
2018-06-05T07:52:48.579Z,18.30
2018-06-05T07:55:52.993Z,18.60
2018-06-05T07:58:57.384Z,21.03
2018-06-05T08:02:01.771Z,22.10
2018-06-05T08:05:06.239Z,23.83
2018-06-05T08:08:10.661Z,25.03
2018-06-05T08:11:15.042Z,22.40
2018-06-05T08:14:19.465Z,18.90
2018-06-05T08:17:23.830Z,23.17
2018-06-05T08:20:28.316Z,21.53
2018-06-05T08:23:32.708Z,21.27
2018-06-05T08:26:50.792Z,20.10
2018-06-05T08:29:55.157Z,20.30
2018-06-05T08:32:59.566Z,19.47
2018-06-05T08:36:03.921Z,20.93
2018-06-05T08:39:09.213Z,19.97
2018-06-05T08:42:13.593Z,21.87
2018-06-05T08:45:17.991Z,23.63
2018-06-05T08:48:22.332Z,23.63
2018-06-05T08:51:26.753Z,25.83
2018-06-05T08:54:31.141Z,22.17
2018-06-05T08:57:35.518Z,18.00
2018-06-05T09:00:39.898Z,17.43
2018-06-05T09:03:44.294Z,20.83
2018-06-05T09:06:48.700Z,18.93
2018-06-05T09:09:53.097Z,15.20
2018-06-05T09:12:57.300Z,20.67
2018-06-05T09:16:01.694Z,17.57
2018-06-05T09:19:06.072Z,19.20
2018-06-05T09:22:10.533Z,22.50
2018-06-05T09:25:14.933Z,20.83
2018-06-05T09:28:19.346Z,14.43
2018-06-05T09:31:23.726Z,18.60
2018-06-05T09:34:28.148Z,24.50
2018-06-05T09:37:32.559Z,21.80
2018-06-05T09:40:36.977Z,18.63
2018-06-05T09:43:41.359Z,16.90
2018-06-05T09:46:45.769Z,17.10
2018-06-05T09:49:50.168Z,15.90
2018-06-05T09:52:54.544Z,15.97
2018-06-05T09:55:58.916Z,20.53
2018-06-05T09:59:03.307Z,15.87
2018-06-05T10:02:07.716Z,17.00
2018-06-05T10:05:12.130Z,19.50
2018-06-05T10:08:16.559Z,19.97
2018-06-05T10:11:20.978Z,21.50
2018-06-05T10:14:25.366Z,20.40
2018-06-05T10:17:29.749Z,20.40
2018-06-05T10:20:34.277Z,22.60
2018-06-05T10:23:38.699Z,21.30
2018-06-05T10:26:43.121Z,19.30
2018-06-05T10:29:47.526Z,13.57
2018-06-05T10:32:52.232Z,20.77
2018-06-05T10:35:56.717Z,13.13
2018-06-05T10:39:01.294Z,19.80
2018-06-05T10:42:06.962Z,21.43
2018-06-05T10:45:12.764Z,22.83
2018-06-05T10:48:17.495Z,18.50
2018-06-05T10:51:22.019Z,22.57
2018-06-05T10:54:26.738Z,15.60
2018-06-05T10:57:31.301Z,21.67
2018-06-05T11:00:35.882Z,23.10
2018-06-05T11:03:40.462Z,20.07
2018-06-05T11:06:47.037Z,15.40
2018-06-05T11:09:51.645Z,20.70
2018-06-05T11:12:56.472Z,19.90
2018-06-05T11:16:00.888Z,24.47
2018-06-05T11:19:05.308Z,17.17
2018-06-05T11:22:09.738Z,18.10
2018-06-05T11:25:14.137Z,19.37
2018-06-05T11:28:18.521Z,17.67
2018-06-05T11:31:22.909Z,20.67
2018-06-05T11:34:27.321Z,17.83
2018-06-05T11:37:31.718Z,17.27
2018-06-05T11:40:36.140Z,19.40
2018-06-05T11:43:40.513Z,23.13
2018-06-05T11:46:44.975Z,22.20
2018-06-05T11:49:49.333Z,21.47
2018-06-05T11:52:53.740Z,19.83
2018-06-05T11:55:58.151Z,15.47
2018-06-05T11:59:02.549Z,19.17
2018-06-05T12:02:07.109Z,16.47
2018-06-05T12:05:11.546Z,18.53
2018-06-05T12:08:15.976Z,20.57
2018-06-05T12:11:20.348Z,23.10
2018-06-05T12:14:24.760Z,15.30
2018-06-05T12:17:29.149Z,18.37
2018-06-05T12:20:33.592Z,11.40
2018-06-05T12:23:38.022Z,16.47
2018-06-05T12:26:42.442Z,18.37
2018-06-05T12:29:46.827Z,16.30
2018-06-05T12:32:51.382Z,16.53
2018-06-05T12:35:55.753Z,23.83
2018-06-05T12:39:00.264Z,10.80
2018-06-05T12:42:04.662Z,14.47
2018-06-05T12:45:09.116Z,19.87
2018-06-05T12:48:13.497Z,16.17
2018-06-05T12:51:17.893Z,12.33
2018-06-05T12:54:22.294Z,13.20
2018-06-05T12:57:26.702Z,12.90
2018-06-05T13:00:31.125Z,21.07
2018-06-05T13:03:35.543Z,12.77
2018-06-05T13:06:40.004Z,10.73
2018-06-05T13:09:44.413Z,12.80
2018-06-05T13:12:48.824Z,13.33
2018-06-05T13:15:53.253Z,10.47
2018-06-05T13:18:57.640Z,8.53
2018-06-05T13:22:02.012Z,10.93
2018-06-05T13:25:06.621Z,10.23
2018-06-05T13:28:11.058Z,15.00
2018-06-05T13:31:15.460Z,11.50
2018-06-05T13:34:19.868Z,10.63
2018-06-05T13:37:24.265Z,9.33
2018-06-05T13:40:28.690Z,9.50
2018-06-05T13:43:33.077Z,7.17
2018-06-05T13:46:37.473Z,10.33
2018-06-05T13:49:41.937Z,12.20
2018-06-05T13:52:46.383Z,8.47
2018-06-05T13:55:50.769Z,8.07
2018-06-05T13:58:55.190Z,7.93
2018-06-05T14:01:59.594Z,5.47
2018-06-05T14:05:03.997Z,7.60
2018-06-05T14:08:08.418Z,9.00
2018-06-05T14:11:12.839Z,6.47
2018-06-05T14:14:17.230Z,12.60
2018-06-05T14:17:21.721Z,4.43
2018-06-05T14:20:26.164Z,6.77
2018-06-05T14:23:30.591Z,4.27
2018-06-05T14:26:35.020Z,4.53
2018-06-05T14:29:39.443Z,6.40
2018-06-05T14:32:43.841Z,15.30
2018-06-05T14:35:48.250Z,6.83
2018-06-05T14:38:52.645Z,11.13
2018-06-05T14:41:57.061Z,5.63
2018-06-05T14:45:01.552Z,7.07
2018-06-05T14:48:05.892Z,6.70
2018-06-05T14:51:10.342Z,3.93
2018-06-05T14:54:14.733Z,4.57
2018-06-05T14:57:19.156Z,5.93
2018-06-05T15:00:23.553Z,6.60
2018-06-05T15:03:27.950Z,8.13
2018-06-05T15:06:32.342Z,5.67
2018-06-05T15:09:36.793Z,6.80
2018-06-05T15:12:41.213Z,6.63
2018-06-05T15:15:45.604Z,4.17
2018-06-05T15:18:50.060Z,7.83
2018-06-05T15:21:54.449Z,7.70
2018-06-05T15:24:58.900Z,6.63
2018-06-05T15:28:03.310Z,5.93
2018-06-05T15:31:07.731Z,4.37
2018-06-05T15:34:12.200Z,5.57
2018-06-05T15:37:16.508Z,8.93
2018-06-05T15:40:20.928Z,4.27
2018-06-05T15:43:25.304Z,7.70
2018-06-05T15:46:29.695Z,6.77
2018-06-05T15:49:34.085Z,4.13
2018-06-05T15:52:38.494Z,5.83
2018-06-05T15:55:42.868Z,4.57
2018-06-05T15:58:47.257Z,4.97
2018-06-05T16:01:51.642Z,3.70
2018-06-05T16:04:56.022Z,4.00
2018-06-05T16:08:00.423Z,5.17
2018-06-05T16:11:04.791Z,4.67
2018-06-05T16:14:09.161Z,3.73
2018-06-05T16:17:13.542Z,3.90
2018-06-05T16:20:17.982Z,4.97
2018-06-05T16:23:22.413Z,3.43
2018-06-05T16:26:26.839Z,4.53
2018-06-05T16:29:31.210Z,3.67
2018-06-05T16:32:35.574Z,4.53
2018-06-05T16:35:39.973Z,4.47
2018-06-05T16:38:44.419Z,5.63
2018-06-05T16:41:48.806Z,5.27
2018-06-05T16:44:53.206Z,4.00
2018-06-05T16:47:57.608Z,4.53
2018-06-05T16:51:02.033Z,3.57
2018-06-05T16:54:06.987Z,6.03
2018-06-05T16:57:11.411Z,4.63
2018-06-05T17:00:15.822Z,3.50
2018-06-05T17:03:20.184Z,4.80
2018-06-05T17:06:24.578Z,4.20
2018-06-05T17:09:28.966Z,3.30
2018-06-05T17:12:33.344Z,5.73
2018-06-05T17:15:37.706Z,2.60
2018-06-05T17:18:42.108Z,6.63
2018-06-05T17:21:46.476Z,2.50
2018-06-05T17:24:50.842Z,5.47
2018-06-05T17:27:55.230Z,4.00
2018-06-05T17:30:59.637Z,3.53
2018-06-05T17:34:04.049Z,4.77
2018-06-05T17:37:08.460Z,3.77
2018-06-05T17:40:12.883Z,3.40
2018-06-05T17:43:17.217Z,2.70
2018-06-05T17:46:21.564Z,3.40
2018-06-05T17:49:25.931Z,5.00
2018-06-05T17:52:30.297Z,4.00
2018-06-05T17:55:34.680Z,3.30
2018-06-05T17:58:39.073Z,3.20
2018-06-05T18:01:43.437Z,3.00
2018-06-05T18:04:47.796Z,4.97
2018-06-05T18:07:52.141Z,4.70
2018-06-05T18:10:56.525Z,2.87
2018-06-05T18:14:00.908Z,3.93
2018-06-05T18:17:05.291Z,5.13
2018-06-05T18:20:09.653Z,5.47
2018-06-05T18:23:14.053Z,5.77
2018-06-05T18:26:18.412Z,5.53
2018-06-05T18:29:22.847Z,6.50
2018-06-05T18:32:27.172Z,6.07
2018-06-05T18:35:31.534Z,5.40
2018-06-05T18:38:35.886Z,6.80
2018-06-05T18:41:43.813Z,6.17
2018-06-05T18:44:48.213Z,5.40
2018-06-05T18:47:52.572Z,8.33
2018-06-05T18:50:56.966Z,6.57
2018-06-05T18:54:01.350Z,5.87
2018-06-05T18:57:05.782Z,7.37
2018-06-05T19:00:10.172Z,11.67
2018-06-05T19:03:14.544Z,8.47
2018-06-05T19:06:18.906Z,7.70
2018-06-05T19:09:23.273Z,9.67
2018-06-05T19:12:27.725Z,8.93
2018-06-05T19:15:32.089Z,10.50
2018-06-05T19:18:36.437Z,9.27
2018-06-05T19:21:40.805Z,10.53
2018-06-05T19:24:45.250Z,11.33
2018-06-05T19:27:49.658Z,8.27
2018-06-05T19:30:54.070Z,9.27
2018-06-05T19:33:58.577Z,9.37
2018-06-05T19:37:03.151Z,10.97
2018-06-05T19:40:07.715Z,10.57
2018-06-05T19:43:13.011Z,10.43
2018-06-05T19:46:17.484Z,10.97
2018-06-05T19:49:21.948Z,11.97
2018-06-05T19:52:26.440Z,10.67
2018-06-05T19:55:31.006Z,10.87
2018-06-05T19:58:35.507Z,8.57
2018-06-05T20:01:39.974Z,12.20
2018-06-05T20:04:44.513Z,10.77
2018-06-05T20:07:48.980Z,12.10
2018-06-05T20:10:53.806Z,12.30
2018-06-05T20:13:58.454Z,12.53
2018-06-05T20:17:02.920Z,11.00
2018-06-05T20:20:08.307Z,10.57
2018-06-05T20:23:12.856Z,12.03
2018-06-05T20:26:17.400Z,9.60
2018-06-05T20:29:21.848Z,11.13
2018-06-05T20:32:26.265Z,14.77
2018-06-05T20:35:30.715Z,12.70
2018-06-05T20:38:35.133Z,9.23
2018-06-05T20:41:39.550Z,9.40
2018-06-05T20:44:43.961Z,9.30
2018-06-05T20:47:48.386Z,7.83
2018-06-05T20:50:52.832Z,9.93
2018-06-05T20:53:57.275Z,9.83
2018-06-05T20:57:01.701Z,9.27
2018-06-05T21:00:06.770Z,9.50
2018-06-05T21:03:11.265Z,9.53
2018-06-05T21:06:15.750Z,10.30
2018-06-05T21:09:20.197Z,10.60
2018-06-05T21:12:24.622Z,10.20
2018-06-05T21:15:29.050Z,10.87
2018-06-05T21:18:33.470Z,10.23
2018-06-05T21:21:37.870Z,11.43
2018-06-05T21:24:42.285Z,9.33
2018-06-05T21:27:46.735Z,11.80
2018-06-05T21:30:51.157Z,11.07
2018-06-05T21:33:55.624Z,10.20
2018-06-05T21:37:00.031Z,8.20
2018-06-05T21:40:04.510Z,8.60
2018-06-05T21:43:08.960Z,7.93
2018-06-05T21:46:13.380Z,7.93
2018-06-05T21:49:17.815Z,10.10
2018-06-05T21:52:22.225Z,7.67
2018-06-05T21:55:26.629Z,8.33
2018-06-05T21:58:31.016Z,8.33
2018-06-05T22:01:35.441Z,8.90
2018-06-05T22:04:39.581Z,7.70
2018-06-05T22:07:44.000Z,6.60
2018-06-05T22:10:48.417Z,7.60
2018-06-05T22:13:52.986Z,5.73
2018-06-05T22:16:57.385Z,6.20
2018-06-05T22:20:01.817Z,8.50
2018-06-05T22:23:06.241Z,5.73
2018-06-05T22:26:10.678Z,7.10
2018-06-05T22:29:15.081Z,7.07
2018-06-05T22:32:19.517Z,8.40
2018-06-05T22:35:23.934Z,4.23
2018-06-05T22:38:28.466Z,5.60
2018-06-05T22:41:32.909Z,6.27
2018-06-05T22:44:37.416Z,6.80
2018-06-05T22:47:41.852Z,4.87
2018-06-05T22:50:46.312Z,6.60
2018-06-05T22:53:50.738Z,4.87
2018-06-05T22:56:55.166Z,7.27
2018-06-05T22:59:59.593Z,4.43
2018-06-05T23:03:04.041Z,5.10
2018-06-05T23:06:08.669Z,4.40
2018-06-05T23:09:13.116Z,5.70
2018-06-05T23:12:17.545Z,4.13
2018-06-05T23:15:22.007Z,6.87
2018-06-05T23:18:26.447Z,5.10
2018-06-05T23:21:30.889Z,4.47
2018-06-05T23:24:35.348Z,6.73
2018-06-05T23:27:39.818Z,6.30
2018-06-05T23:30:44.249Z,7.07
2018-06-05T23:33:48.654Z,4.07
2018-06-05T23:36:53.058Z,4.40
2018-06-05T23:39:57.478Z,4.07
2018-06-05T23:43:01.930Z,5.53
2018-06-05T23:46:06.352Z,6.60
2018-06-05T23:49:10.777Z,5.27
2018-06-05T23:52:15.181Z,5.70
2018-06-05T23:55:19.617Z,6.80
2018-06-05T23:58:24.025Z,4.13
